sensor_id;sensor_type;location;lat;lon;timestamp;P1;durP1;ratioP1;P2;durP2;ratioP2
52226;SDS011;38190;59.928;10.446;2022-08-21T00:02:23;2.90;;;1.60;;
52226;SDS011;38190;59.928;10.446;2022-08-21T00:05:25;10.20;;;1.83;;
52226;SDS011;38190;59.928;10.446;2022-08-21T00:08:27;3.05;;;1.17;;
52226;SDS011;38190;59.928;10.446;2022-08-21T00:11:27;1.85;;;0.93;;
52226;SDS011;38190;59.928;10.446;2022-08-21T00:14:28;2.13;;;1.02;;
52226;SDS011;38190;59.928;10.446;2022-08-21T00:17:28;4.07;;;1.27;;
52226;SDS011;38190;59.928;10.446;2022-08-21T00:20:29;1.25;;;0.65;;
52226;SDS011;38190;59.928;10.446;2022-08-21T00:23:30;4.80;;;3.15;;
52226;SDS011;38190;59.928;10.446;2022-08-21T00:26:30;1.48;;;1.15;;
52226;SDS011;38190;59.928;10.446;2022-08-21T00:29:31;2.40;;;1.20;;
52226;SDS011;38190;59.928;10.446;2022-08-21T00:32:31;1.63;;;1.30;;
52226;SDS011;38190;59.928;10.446;2022-08-21T00:35:36;2.25;;;0.60;;
52226;SDS011;38190;59.928;10.446;2022-08-21T00:38:38;2.22;;;1.13;;
52226;SDS011;38190;59.928;10.446;2022-08-21T00:41:39;5.47;;;1.30;;
52226;SDS011;38190;59.928;10.446;2022-08-21T00:44:43;6.10;;;0.98;;
52226;SDS011;38190;59.928;10.446;2022-08-21T00:47:47;3.53;;;1.90;;
52226;SDS011;38190;59.928;10.446;2022-08-21T00:50:50;5.35;;;2.78;;
52226;SDS011;38190;59.928;10.446;2022-08-21T00:53:57;5.47;;;3.03;;
52226;SDS011;38190;59.928;10.446;2022-08-21T00:57:01;2.72;;;1.83;;
52226;SDS011;38190;59.928;10.446;2022-08-21T01:00:06;11.95;;;2.67;;
52226;SDS011;38190;59.928;10.446;2022-08-21T01:03:11;12.93;;;2.33;;
52226;SDS011;38190;59.928;10.446;2022-08-21T01:06:14;2.13;;;0.73;;
52226;SDS011;38190;59.928;10.446;2022-08-21T01:09:15;3.17;;;1.20;;
52226;SDS011;38190;59.928;10.446;2022-08-21T01:12:15;2.92;;;1.33;;
52226;SDS011;38190;59.928;10.446;2022-08-21T01:15:16;1.17;;;1.00;;
52226;SDS011;38190;59.928;10.446;2022-08-21T01:18:18;1.83;;;1.20;;
52226;SDS011;38190;59.928;10.446;2022-08-21T01:21:22;1.73;;;1.30;;
52226;SDS011;38190;59.928;10.446;2022-08-21T01:24:24;1.40;;;0.88;;
52226;SDS011;38190;59.928;10.446;2022-08-21T01:27:25;2.03;;;1.10;;
52226;SDS011;38190;59.928;10.446;2022-08-21T01:30:26;1.20;;;1.10;;
52226;SDS011;38190;59.928;10.446;2022-08-21T01:33:27;16.42;;;1.60;;
52226;SDS011;38190;59.928;10.446;2022-08-21T01:36:28;3.25;;;1.38;;
52226;SDS011;38190;59.928;10.446;2022-08-21T01:39:29;1.80;;;1.33;;
52226;SDS011;38190;59.928;10.446;2022-08-21T01:42:29;2.80;;;1.00;;
52226;SDS011;38190;59.928;10.446;2022-08-21T01:45:30;1.10;;;0.75;;
52226;SDS011;38190;59.928;10.446;2022-08-21T01:48:30;2.97;;;1.67;;
52226;SDS011;38190;59.928;10.446;2022-08-21T01:51:31;1.00;;;0.85;;
52226;SDS011;38190;59.928;10.446;2022-08-21T01:54:32;1.67;;;1.25;;
52226;SDS011;38190;59.928;10.446;2022-08-21T01:57:32;2.10;;;0.73;;
52226;SDS011;38190;59.928;10.446;2022-08-21T02:00:34;2.13;;;1.52;;
52226;SDS011;38190;59.928;10.446;2022-08-21T02:03:35;1.10;;;0.75;;
52226;SDS011;38190;59.928;10.446;2022-08-21T02:06:36;11.38;;;1.38;;
52226;SDS011;38190;59.928;10.446;2022-08-21T02:09:37;0.98;;;0.80;;
52226;SDS011;38190;59.928;10.446;2022-08-21T02:12:37;4.00;;;1.52;;
52226;SDS011;38190;59.928;10.446;2022-08-21T02:15:37;2.72;;;1.33;;
52226;SDS011;38190;59.928;10.446;2022-08-21T02:18:38;1.30;;;1.17;;
52226;SDS011;38190;59.928;10.446;2022-08-21T02:21:38;6.82;;;1.67;;
52226;SDS011;38190;59.928;10.446;2022-08-21T02:24:39;3.70;;;1.77;;
52226;SDS011;38190;59.928;10.446;2022-08-21T02:27:41;1.55;;;1.15;;
52226;SDS011;38190;59.928;10.446;2022-08-21T02:30:44;3.33;;;1.33;;
52226;SDS011;38190;59.928;10.446;2022-08-21T02:33:45;3.10;;;1.45;;
52226;SDS011;38190;59.928;10.446;2022-08-21T02:36:46;3.50;;;1.58;;
52226;SDS011;38190;59.928;10.446;2022-08-21T02:39:46;1.60;;;1.50;;
52226;SDS011;38190;59.928;10.446;2022-08-21T02:42:47;2.40;;;1.17;;
52226;SDS011;38190;59.928;10.446;2022-08-21T02:45:47;12.10;;;2.65;;
52226;SDS011;38190;59.928;10.446;2022-08-21T02:48:48;4.28;;;1.30;;
52226;SDS011;38190;59.928;10.446;2022-08-21T02:51:49;2.63;;;1.33;;
52226;SDS011;38190;59.928;10.446;2022-08-21T02:54:49;4.85;;;1.83;;
52226;SDS011;38190;59.928;10.446;2022-08-21T02:57:50;3.17;;;2.05;;
52226;SDS011;38190;59.928;10.446;2022-08-21T03:00:51;3.80;;;2.03;;
52226;SDS011;38190;59.928;10.446;2022-08-21T03:03:52;1.42;;;1.33;;
52226;SDS011;38190;59.928;10.446;2022-08-21T03:06:53;2.42;;;1.65;;
52226;SDS011;38190;59.928;10.446;2022-08-21T03:09:54;1.35;;;1.02;;
52226;SDS011;38190;59.928;10.446;2022-08-21T03:12:54;3.97;;;1.73;;
52226;SDS011;38190;59.928;10.446;2022-08-21T03:15:54;3.97;;;1.70;;
52226;SDS011;38190;59.928;10.446;2022-08-21T03:18:56;4.40;;;2.22;;
52226;SDS011;38190;59.928;10.446;2022-08-21T03:21:56;2.83;;;1.85;;
52226;SDS011;38190;59.928;10.446;2022-08-21T03:24:57;1.73;;;1.45;;
52226;SDS011;38190;59.928;10.446;2022-08-21T03:28:03;1.50;;;1.27;;
52226;SDS011;38190;59.928;10.446;2022-08-21T03:31:05;1.38;;;1.27;;
52226;SDS011;38190;59.928;10.446;2022-08-21T03:34:05;4.28;;;1.27;;
52226;SDS011;38190;59.928;10.446;2022-08-21T03:37:07;3.20;;;1.80;;
52226;SDS011;38190;59.928;10.446;2022-08-21T03:40:08;4.28;;;2.33;;
52226;SDS011;38190;59.928;10.446;2022-08-21T03:43:10;1.58;;;1.00;;
52226;SDS011;38190;59.928;10.446;2022-08-21T03:46:11;2.75;;;1.88;;
52226;SDS011;38190;59.928;10.446;2022-08-21T03:49:11;7.03;;;2.80;;
52226;SDS011;38190;59.928;10.446;2022-08-21T03:52:12;2.28;;;1.90;;
52226;SDS011;38190;59.928;10.446;2022-08-21T03:55:12;7.22;;;1.85;;
52226;SDS011;38190;59.928;10.446;2022-08-21T03:58:14;2.92;;;1.63;;
52226;SDS011;38190;59.928;10.446;2022-08-21T04:01:16;2.35;;;1.83;;
52226;SDS011;38190;59.928;10.446;2022-08-21T04:04:16;3.13;;;1.70;;
52226;SDS011;38190;59.928;10.446;2022-08-21T04:07:17;1.67;;;1.10;;
52226;SDS011;38190;59.928;10.446;2022-08-21T04:10:17;3.90;;;1.90;;
52226;SDS011;38190;59.928;10.446;2022-08-21T04:13:18;2.50;;;1.70;;
52226;SDS011;38190;59.928;10.446;2022-08-21T04:16:19;1.20;;;1.05;;
52226;SDS011;38190;59.928;10.446;2022-08-21T04:19:20;3.78;;;2.03;;
52226;SDS011;38190;59.928;10.446;2022-08-21T04:22:21;3.03;;;1.58;;
52226;SDS011;38190;59.928;10.446;2022-08-21T04:25:22;4.90;;;1.90;;
52226;SDS011;38190;59.928;10.446;2022-08-21T04:28:23;2.38;;;1.15;;
52226;SDS011;38190;59.928;10.446;2022-08-21T04:31:26;1.88;;;1.20;;
52226;SDS011;38190;59.928;10.446;2022-08-21T04:34:28;2.35;;;1.38;;
52226;SDS011;38190;59.928;10.446;2022-08-21T04:37:29;2.88;;;1.08;;
52226;SDS011;38190;59.928;10.446;2022-08-21T04:40:30;1.52;;;1.10;;
52226;SDS011;38190;59.928;10.446;2022-08-21T04:43:31;2.05;;;1.60;;
52226;SDS011;38190;59.928;10.446;2022-08-21T04:46:31;3.80;;;1.58;;
52226;SDS011;38190;59.928;10.446;2022-08-21T04:49:32;3.13;;;1.52;;
52226;SDS011;38190;59.928;10.446;2022-08-21T04:52:33;4.53;;;1.98;;
52226;SDS011;38190;59.928;10.446;2022-08-21T04:55:33;2.55;;;1.55;;
52226;SDS011;38190;59.928;10.446;2022-08-21T04:58:35;3.67;;;2.25;;
52226;SDS011;38190;59.928;10.446;2022-08-21T05:01:38;1.17;;;1.00;;
52226;SDS011;38190;59.928;10.446;2022-08-21T05:04:45;2.60;;;1.77;;
52226;SDS011;38190;59.928;10.446;2022-08-21T05:07:51;1.55;;;1.02;;
52226;SDS011;38190;59.928;10.446;2022-08-21T05:10:53;2.08;;;1.48;;
52226;SDS011;38190;59.928;10.446;2022-08-21T05:13:54;1.83;;;1.55;;
52226;SDS011;38190;59.928;10.446;2022-08-21T05:16:55;3.17;;;1.70;;
52226;SDS011;38190;59.928;10.446;2022-08-21T05:19:55;2.13;;;1.48;;
52226;SDS011;38190;59.928;10.446;2022-08-21T05:22:56;1.25;;;1.00;;
52226;SDS011;38190;59.928;10.446;2022-08-21T05:25:56;2.20;;;1.25;;
52226;SDS011;38190;59.928;10.446;2022-08-21T05:28:57;3.25;;;1.63;;
52226;SDS011;38190;59.928;10.446;2022-08-21T05:31:58;2.33;;;1.42;;
52226;SDS011;38190;59.928;10.446;2022-08-21T05:34:59;3.25;;;1.58;;
52226;SDS011;38190;59.928;10.446;2022-08-21T05:37:59;1.65;;;1.15;;
52226;SDS011;38190;59.928;10.446;2022-08-21T05:41:01;5.13;;;1.48;;
52226;SDS011;38190;59.928;10.446;2022-08-21T05:44:01;2.47;;;1.70;;
52226;SDS011;38190;59.928;10.446;2022-08-21T05:47:06;3.88;;;1.35;;
52226;SDS011;38190;59.928;10.446;2022-08-21T05:50:08;3.10;;;1.50;;
52226;SDS011;38190;59.928;10.446;2022-08-21T05:53:09;2.88;;;2.05;;
52226;SDS011;38190;59.928;10.446;2022-08-21T05:56:10;10.93;;;2.10;;
52226;SDS011;38190;59.928;10.446;2022-08-21T05:59:12;2.63;;;1.38;;
52226;SDS011;38190;59.928;10.446;2022-08-21T06:02:13;6.47;;;1.52;;
52226;SDS011;38190;59.928;10.446;2022-08-21T06:05:13;4.70;;;1.75;;
52226;SDS011;38190;59.928;10.446;2022-08-21T06:08:14;2.13;;;1.50;;
52226;SDS011;38190;59.928;10.446;2022-08-21T06:11:16;2.03;;;1.17;;
52226;SDS011;38190;59.928;10.446;2022-08-21T06:14:17;6.93;;;1.98;;
52226;SDS011;38190;59.928;10.446;2022-08-21T06:17:17;1.83;;;1.13;;
52226;SDS011;38190;59.928;10.446;2022-08-21T06:20:18;1.08;;;0.80;;
52226;SDS011;38190;59.928;10.446;2022-08-21T06:23:18;3.67;;;1.30;;
52226;SDS011;38190;59.928;10.446;2022-08-21T06:26:19;2.13;;;1.40;;
52226;SDS011;38190;59.928;10.446;2022-08-21T06:29:21;2.95;;;1.25;;
52226;SDS011;38190;59.928;10.446;2022-08-21T06:32:22;2.03;;;1.23;;
52226;SDS011;38190;59.928;10.446;2022-08-21T06:35:23;4.43;;;1.67;;
52226;SDS011;38190;59.928;10.446;2022-08-21T06:38:24;5.47;;;1.88;;
52226;SDS011;38190;59.928;10.446;2022-08-21T06:41:25;2.35;;;1.48;;
52226;SDS011;38190;59.928;10.446;2022-08-21T06:44:25;3.55;;;2.28;;
52226;SDS011;38190;59.928;10.446;2022-08-21T06:47:26;6.75;;;2.20;;
52226;SDS011;38190;59.928;10.446;2022-08-21T06:50:26;2.90;;;2.45;;
52226;SDS011;38190;59.928;10.446;2022-08-21T06:53:27;2.10;;;1.58;;
52226;SDS011;38190;59.928;10.446;2022-08-21T06:56:28;4.03;;;1.65;;
52226;SDS011;38190;59.928;10.446;2022-08-21T06:59:28;3.55;;;1.92;;
52226;SDS011;38190;59.928;10.446;2022-08-21T07:02:29;5.20;;;1.85;;
52226;SDS011;38190;59.928;10.446;2022-08-21T07:05:29;3.15;;;2.08;;
52226;SDS011;38190;59.928;10.446;2022-08-21T07:08:30;3.75;;;2.20;;
52226;SDS011;38190;59.928;10.446;2022-08-21T07:11:30;3.38;;;1.88;;
52226;SDS011;38190;59.928;10.446;2022-08-21T07:14:31;8.68;;;2.55;;
52226;SDS011;38190;59.928;10.446;2022-08-21T07:17:32;3.72;;;2.13;;
52226;SDS011;38190;59.928;10.446;2022-08-21T07:20:32;9.40;;;2.22;;
52226;SDS011;38190;59.928;10.446;2022-08-21T07:23:35;6.75;;;2.03;;
52226;SDS011;38190;59.928;10.446;2022-08-21T07:26:39;6.85;;;2.03;;
52226;SDS011;38190;59.928;10.446;2022-08-21T07:29:40;6.05;;;2.38;;
52226;SDS011;38190;59.928;10.446;2022-08-21T07:32:40;5.20;;;2.03;;
52226;SDS011;38190;59.928;10.446;2022-08-21T07:35:41;3.15;;;2.25;;
52226;SDS011;38190;59.928;10.446;2022-08-21T07:38:41;2.03;;;0.98;;
52226;SDS011;38190;59.928;10.446;2022-08-21T07:41:41;2.95;;;2.03;;
52226;SDS011;38190;59.928;10.446;2022-08-21T07:44:42;3.70;;;2.38;;
52226;SDS011;38190;59.928;10.446;2022-08-21T07:47:43;3.28;;;1.83;;
52226;SDS011;38190;59.928;10.446;2022-08-21T07:50:43;7.85;;;2.35;;
52226;SDS011;38190;59.928;10.446;2022-08-21T07:53:48;3.22;;;2.65;;
52226;SDS011;38190;59.928;10.446;2022-08-21T07:56:50;5.55;;;2.00;;
52226;SDS011;38190;59.928;10.446;2022-08-21T07:59:50;5.63;;;2.75;;
52226;SDS011;38190;59.928;10.446;2022-08-21T08:02:51;7.50;;;2.55;;
52226;SDS011;38190;59.928;10.446;2022-08-21T08:05:54;7.68;;;2.28;;
52226;SDS011;38190;59.928;10.446;2022-08-21T08:08:54;5.60;;;3.10;;
52226;SDS011;38190;59.928;10.446;2022-08-21T08:11:55;5.78;;;1.98;;
52226;SDS011;38190;59.928;10.446;2022-08-21T08:14:56;10.55;;;2.65;;
52226;SDS011;38190;59.928;10.446;2022-08-21T08:17:57;5.40;;;2.38;;
52226;SDS011;38190;59.928;10.446;2022-08-21T08:20:58;6.38;;;3.72;;
52226;SDS011;38190;59.928;10.446;2022-08-21T08:23:59;2.58;;;2.17;;
52226;SDS011;38190;59.928;10.446;2022-08-21T08:27:00;3.63;;;1.92;;
52226;SDS011;38190;59.928;10.446;2022-08-21T08:30:00;9.07;;;3.67;;
52226;SDS011;38190;59.928;10.446;2022-08-21T08:33:01;3.05;;;2.35;;
52226;SDS011;38190;59.928;10.446;2022-08-21T08:36:02;8.25;;;2.70;;
52226;SDS011;38190;59.928;10.446;2022-08-21T08:39:04;3.00;;;1.95;;
52226;SDS011;38190;59.928;10.446;2022-08-21T08:42:12;9.70;;;2.30;;
52226;SDS011;38190;59.928;10.446;2022-08-21T08:45:21;12.70;;;1.90;;
52226;SDS011;38190;59.928;10.446;2022-08-21T08:48:58;3.42;;;1.35;;
52226;SDS011;38190;59.928;10.446;2022-08-21T08:52:03;5.93;;;2.13;;
52226;SDS011;38190;59.928;10.446;2022-08-21T08:55:14;9.63;;;3.00;;
52226;SDS011;38190;59.928;10.446;2022-08-21T08:58:27;2.92;;;1.88;;
52226;SDS011;38190;59.928;10.446;2022-08-21T09:01:33;2.60;;;1.52;;
52226;SDS011;38190;59.928;10.446;2022-08-21T09:04:35;4.00;;;2.10;;
52226;SDS011;38190;59.928;10.446;2022-08-21T09:07:46;3.55;;;1.80;;
52226;SDS011;38190;59.928;10.446;2022-08-21T09:11:04;3.95;;;1.60;;
52226;SDS011;38190;59.928;10.446;2022-08-21T09:14:33;5.10;;;2.25;;
52226;SDS011;38190;59.928;10.446;2022-08-21T09:27:40;3.85;;;1.17;;
52226;SDS011;38190;59.928;10.446;2022-08-21T09:30:41;7.57;;;2.38;;
52226;SDS011;38190;59.928;10.446;2022-08-21T09:33:42;4.25;;;1.92;;
52226;SDS011;38190;59.928;10.446;2022-08-21T09:36:44;3.97;;;1.77;;
52226;SDS011;38190;59.928;10.446;2022-08-21T09:39:47;6.50;;;2.63;;
52226;SDS011;38190;59.928;10.446;2022-08-21T09:42:55;3.38;;;1.52;;
52226;SDS011;38190;59.928;10.446;2022-08-21T09:46:10;3.42;;;2.58;;
52226;SDS011;38190;59.928;10.446;2022-08-21T09:49:33;4.85;;;2.80;;
52226;SDS011;38190;59.928;10.446;2022-08-21T09:52:41;3.13;;;2.55;;
52226;SDS011;38190;59.928;10.446;2022-08-21T09:59:13;2.10;;;1.45;;
52226;SDS011;38190;59.928;10.446;2022-08-21T10:02:28;1.47;;;1.23;;
52226;SDS011;38190;59.928;10.446;2022-08-21T10:05:33;4.72;;;2.13;;
52226;SDS011;38190;59.928;10.446;2022-08-21T10:08:34;2.67;;;1.40;;
52226;SDS011;38190;59.928;10.446;2022-08-21T10:11:37;3.85;;;1.30;;
52226;SDS011;38190;59.928;10.446;2022-08-21T10:14:58;3.40;;;1.30;;
52226;SDS011;38190;59.928;10.446;2022-08-21T10:18:22;2.40;;;1.10;;
52226;SDS011;38190;59.928;10.446;2022-08-21T10:24:54;3.20;;;1.70;;
52226;SDS011;38190;59.928;10.446;2022-08-21T10:28:22;1.10;;;0.80;;
52226;SDS011;38190;59.928;10.446;2022-08-21T10:41:44;1.05;;;0.52;;
52226;SDS011;38190;59.928;10.446;2022-08-21T10:48:16;1.05;;;0.85;;
52226;SDS011;38190;59.928;10.446;2022-08-21T10:55:00;0.28;;;0.17;;
52226;SDS011;38190;59.928;10.446;2022-08-21T10:58:14;1.02;;;0.93;;
52226;SDS011;38190;59.928;10.446;2022-08-21T11:01:27;0.95;;;0.70;;
52226;SDS011;38190;59.928;10.446;2022-08-21T11:04:40;2.90;;;1.20;;
52226;SDS011;38190;59.928;10.446;2022-08-21T11:10:47;1.95;;;0.45;;
52226;SDS011;38190;59.928;10.446;2022-08-21T11:13:58;1.52;;;0.68;;
52226;SDS011;38190;59.928;10.446;2022-08-21T11:17:10;1.80;;;0.80;;
52226;SDS011;38190;59.928;10.446;2022-08-21T11:20:13;1.15;;;0.75;;
52226;SDS011;38190;59.928;10.446;2022-08-21T11:26:34;2.25;;;0.95;;
52226;SDS011;38190;59.928;10.446;2022-08-21T11:29:41;0.60;;;0.43;;
52226;SDS011;38190;59.928;10.446;2022-08-21T11:36:05;0.80;;;0.47;;
52226;SDS011;38190;59.928;10.446;2022-08-21T11:39:23;1.00;;;0.65;;
52226;SDS011;38190;59.928;10.446;2022-08-21T11:52:43;3.85;;;0.75;;
52226;SDS011;38190;59.928;10.446;2022-08-21T11:55:53;1.27;;;0.75;;
52226;SDS011;38190;59.928;10.446;2022-08-21T11:59:01;0.95;;;0.50;;
52226;SDS011;38190;59.928;10.446;2022-08-21T12:02:21;1.08;;;0.68;;
52226;SDS011;38190;59.928;10.446;2022-08-21T12:05:30;0.57;;;0.35;;
52226;SDS011;38190;59.928;10.446;2022-08-21T12:08:34;3.28;;;1.00;;
52226;SDS011;38190;59.928;10.446;2022-08-21T12:11:49;2.40;;;0.80;;
52226;SDS011;38190;59.928;10.446;2022-08-21T12:18:29;3.03;;;0.93;;
52226;SDS011;38190;59.928;10.446;2022-08-21T12:21:30;2.58;;;0.63;;
52226;SDS011;38190;59.928;10.446;2022-08-21T12:27:43;1.65;;;0.65;;
52226;SDS011;38190;59.928;10.446;2022-08-21T12:30:49;1.52;;;0.98;;
52226;SDS011;38190;59.928;10.446;2022-08-21T12:33:52;1.33;;;0.95;;
52226;SDS011;38190;59.928;10.446;2022-08-21T12:36:58;1.95;;;0.80;;
52226;SDS011;38190;59.928;10.446;2022-08-21T12:40:03;2.63;;;1.20;;
52226;SDS011;38190;59.928;10.446;2022-08-21T12:43:13;1.30;;;0.93;;
52226;SDS011;38190;59.928;10.446;2022-08-21T12:46:22;2.42;;;0.82;;
52226;SDS011;38190;59.928;10.446;2022-08-21T12:49:36;4.13;;;0.98;;
52226;SDS011;38190;59.928;10.446;2022-08-21T12:52:44;1.92;;;1.10;;
52226;SDS011;38190;59.928;10.446;2022-08-21T12:56:12;1.88;;;1.52;;
52226;SDS011;38190;59.928;10.446;2022-08-21T12:59:14;4.85;;;1.17;;
52226;SDS011;38190;59.928;10.446;2022-08-21T13:02:18;3.90;;;1.40;;
52226;SDS011;38190;59.928;10.446;2022-08-21T13:05:27;4.47;;;1.40;;
52226;SDS011;38190;59.928;10.446;2022-08-21T13:08:33;2.75;;;1.13;;
52226;SDS011;38190;59.928;10.446;2022-08-21T13:11:35;2.35;;;1.27;;
52226;SDS011;38190;59.928;10.446;2022-08-21T13:14:38;1.83;;;1.10;;
52226;SDS011;38190;59.928;10.446;2022-08-21T13:17:41;1.40;;;0.95;;
52226;SDS011;38190;59.928;10.446;2022-08-21T13:20:47;3.53;;;1.60;;
52226;SDS011;38190;59.928;10.446;2022-08-21T13:23:47;1.27;;;0.73;;
52226;SDS011;38190;59.928;10.446;2022-08-21T13:26:48;2.85;;;1.38;;
52226;SDS011;38190;59.928;10.446;2022-08-21T13:29:49;8.35;;;1.25;;
52226;SDS011;38190;59.928;10.446;2022-08-21T13:33:02;1.63;;;1.08;;
52226;SDS011;38190;59.928;10.446;2022-08-21T13:36:09;2.00;;;1.23;;
52226;SDS011;38190;59.928;10.446;2022-08-21T13:39:14;1.10;;;0.90;;
52226;SDS011;38190;59.928;10.446;2022-08-21T13:42:18;5.05;;;1.40;;
52226;SDS011;38190;59.928;10.446;2022-08-21T13:45:27;4.20;;;1.98;;
52226;SDS011;38190;59.928;10.446;2022-08-21T13:48:32;2.30;;;1.63;;
52226;SDS011;38190;59.928;10.446;2022-08-21T13:51:34;2.30;;;0.93;;
52226;SDS011;38190;59.928;10.446;2022-08-21T13:54:42;1.33;;;0.80;;
52226;SDS011;38190;59.928;10.446;2022-08-21T13:57:44;6.25;;;1.35;;
52226;SDS011;38190;59.928;10.446;2022-08-21T14:00:49;9.02;;;1.58;;
52226;SDS011;38190;59.928;10.446;2022-08-21T14:03:52;1.73;;;1.42;;
52226;SDS011;38190;59.928;10.446;2022-08-21T14:06:58;16.25;;;2.35;;
52226;SDS011;38190;59.928;10.446;2022-08-21T14:10:06;4.05;;;1.92;;
52226;SDS011;38190;59.928;10.446;2022-08-21T14:13:56;3.63;;;1.20;;
52226;SDS011;38190;59.928;10.446;2022-08-21T14:16:41;5.75;;;1.73;;
52226;SDS011;38190;59.928;10.446;2022-08-21T14:19:47;5.32;;;1.25;;
52226;SDS011;38190;59.928;10.446;2022-08-21T14:22:48;0.73;;;0.40;;
52226;SDS011;38190;59.928;10.446;2022-08-21T14:25:48;0.45;;;0.25;;
52226;SDS011;38190;59.928;10.446;2022-08-21T14:28:49;0.50;;;0.35;;
52226;SDS011;38190;59.928;10.446;2022-08-21T14:31:50;0.50;;;0.30;;
52226;SDS011;38190;59.928;10.446;2022-08-21T14:37:54;0.80;;;0.25;;
52226;SDS011;38190;59.928;10.446;2022-08-21T14:40:56;0.68;;;0.35;;
52226;SDS011;38190;59.928;10.446;2022-08-21T14:44:00;0.35;;;0.22;;
52226;SDS011;38190;59.928;10.446;2022-08-21T14:47:01;2.83;;;0.90;;
52226;SDS011;38190;59.928;10.446;2022-08-21T14:50:02;7.15;;;1.05;;
52226;SDS011;38190;59.928;10.446;2022-08-21T14:53:03;1.52;;;0.90;;
52226;SDS011;38190;59.928;10.446;2022-08-21T14:56:04;0.95;;;0.22;;
52226;SDS011;38190;59.928;10.446;2022-08-21T14:59:06;3.90;;;0.98;;
52226;SDS011;38190;59.928;10.446;2022-08-21T15:02:08;1.90;;;0.15;;
52226;SDS011;38190;59.928;10.446;2022-08-21T15:05:09;0.57;;;0.40;;
52226;SDS011;38190;59.928;10.446;2022-08-21T15:08:09;0.73;;;0.17;;
52226;SDS011;38190;59.928;10.446;2022-08-21T15:11:15;0.95;;;0.20;;
52226;SDS011;38190;59.928;10.446;2022-08-21T15:14:20;0.47;;;0.30;;
52226;SDS011;38190;59.928;10.446;2022-08-21T15:20:23;0.47;;;0.30;;
52226;SDS011;38190;59.928;10.446;2022-08-21T15:23:23;0.10;;;0.10;;
52226;SDS011;38190;59.928;10.446;2022-08-21T15:26:24;3.72;;;0.20;;
52226;SDS011;38190;59.928;10.446;2022-08-21T15:29:25;0.40;;;0.20;;
52226;SDS011;38190;59.928;10.446;2022-08-21T15:32:26;0.38;;;0.20;;
52226;SDS011;38190;59.928;10.446;2022-08-21T15:35:29;1.55;;;0.38;;
52226;SDS011;38190;59.928;10.446;2022-08-21T15:38:29;0.60;;;0.22;;
52226;SDS011;38190;59.928;10.446;2022-08-21T15:41:30;1.42;;;0.65;;
52226;SDS011;38190;59.928;10.446;2022-08-21T15:44:31;0.35;;;0.20;;
52226;SDS011;38190;59.928;10.446;2022-08-21T15:47:33;0.10;;;0.00;;
52226;SDS011;38190;59.928;10.446;2022-08-21T15:50:35;0.80;;;0.32;;
52226;SDS011;38190;59.928;10.446;2022-08-21T15:53:36;0.15;;;0.13;;
52226;SDS011;38190;59.928;10.446;2022-08-21T15:56:39;0.43;;;0.28;;
52226;SDS011;38190;59.928;10.446;2022-08-21T15:59:47;0.25;;;0.22;;
52226;SDS011;38190;59.928;10.446;2022-08-21T16:02:55;2.78;;;0.57;;
52226;SDS011;38190;59.928;10.446;2022-08-21T16:05:58;3.97;;;0.35;;
52226;SDS011;38190;59.928;10.446;2022-08-21T16:08:59;0.65;;;0.25;;
52226;SDS011;38190;59.928;10.446;2022-08-21T16:12:00;0.98;;;0.75;;
52226;SDS011;38190;59.928;10.446;2022-08-21T16:15:02;1.02;;;0.55;;
52226;SDS011;38190;59.928;10.446;2022-08-21T16:18:04;4.47;;;0.22;;
52226;SDS011;38190;59.928;10.446;2022-08-21T16:21:05;0.10;;;0.08;;
52226;SDS011;38190;59.928;10.446;2022-08-21T16:24:07;1.25;;;0.30;;
52226;SDS011;38190;59.928;10.446;2022-08-21T16:27:07;0.15;;;0.10;;
52226;SDS011;38190;59.928;10.446;2022-08-21T16:30:08;1.20;;;0.40;;
52226;SDS011;38190;59.928;10.446;2022-08-21T16:33:12;0.57;;;0.20;;
52226;SDS011;38190;59.928;10.446;2022-08-21T16:36:32;0.10;;;0.10;;
52226;SDS011;38190;59.928;10.446;2022-08-21T16:39:33;0.50;;;0.40;;
52226;SDS011;38190;59.928;10.446;2022-08-21T16:42:34;2.08;;;0.63;;
52226;SDS011;38190;59.928;10.446;2022-08-21T16:45:35;0.43;;;0.30;;
52226;SDS011;38190;59.928;10.446;2022-08-21T16:48:37;0.55;;;0.30;;
52226;SDS011;38190;59.928;10.446;2022-08-21T16:51:38;0.32;;;0.20;;
52226;SDS011;38190;59.928;10.446;2022-08-21T16:54:38;2.10;;;0.73;;
52226;SDS011;38190;59.928;10.446;2022-08-21T16:57:39;0.20;;;0.20;;
52226;SDS011;38190;59.928;10.446;2022-08-21T17:00:41;0.57;;;0.38;;
52226;SDS011;38190;59.928;10.446;2022-08-21T17:03:42;0.68;;;0.38;;
52226;SDS011;38190;59.928;10.446;2022-08-21T17:06:44;0.35;;;0.17;;
52226;SDS011;38190;59.928;10.446;2022-08-21T17:09:46;0.32;;;0.20;;
52226;SDS011;38190;59.928;10.446;2022-08-21T17:12:47;0.75;;;0.52;;
52226;SDS011;38190;59.928;10.446;2022-08-21T17:15:54;0.75;;;0.52;;
52226;SDS011;38190;59.928;10.446;2022-08-21T17:18:56;0.75;;;0.40;;
52226;SDS011;38190;59.928;10.446;2022-08-21T17:21:56;1.23;;;0.57;;
52226;SDS011;38190;59.928;10.446;2022-08-21T17:24:56;0.40;;;0.30;;
52226;SDS011;38190;59.928;10.446;2022-08-21T17:27:57;0.60;;;0.38;;
52226;SDS011;38190;59.928;10.446;2022-08-21T17:30:58;0.88;;;0.38;;
52226;SDS011;38190;59.928;10.446;2022-08-21T17:34:01;1.15;;;0.40;;
52226;SDS011;38190;59.928;10.446;2022-08-21T17:37:03;1.48;;;0.63;;
52226;SDS011;38190;59.928;10.446;2022-08-21T17:40:05;1.95;;;0.77;;
52226;SDS011;38190;59.928;10.446;2022-08-21T17:43:09;0.57;;;0.45;;
52226;SDS011;38190;59.928;10.446;2022-08-21T17:46:16;1.23;;;0.60;;
52226;SDS011;38190;59.928;10.446;2022-08-21T17:49:21;2.25;;;0.60;;
52226;SDS011;38190;59.928;10.446;2022-08-21T17:52:21;0.22;;;0.17;;
52226;SDS011;38190;59.928;10.446;2022-08-21T17:55:22;0.52;;;0.32;;
52226;SDS011;38190;59.928;10.446;2022-08-21T17:58:23;1.08;;;0.55;;
52226;SDS011;38190;59.928;10.446;2022-08-21T18:01:24;0.50;;;0.30;;
52226;SDS011;38190;59.928;10.446;2022-08-21T18:04:27;0.55;;;0.32;;
52226;SDS011;38190;59.928;10.446;2022-08-21T18:07:28;1.55;;;0.82;;
52226;SDS011;38190;59.928;10.446;2022-08-21T18:10:29;0.28;;;0.17;;
52226;SDS011;38190;59.928;10.446;2022-08-21T18:13:31;1.35;;;0.57;;
52226;SDS011;38190;59.928;10.446;2022-08-21T18:16:35;6.90;;;1.10;;
52226;SDS011;38190;59.928;10.446;2022-08-21T18:19:37;1.80;;;0.70;;
52226;SDS011;38190;59.928;10.446;2022-08-21T18:22:38;0.43;;;0.30;;
52226;SDS011;38190;59.928;10.446;2022-08-21T18:25:39;1.33;;;0.60;;
52226;SDS011;38190;59.928;10.446;2022-08-21T18:28:46;0.77;;;0.43;;
52226;SDS011;38190;59.928;10.446;2022-08-21T18:31:47;0.08;;;0.08;;
52226;SDS011;38190;59.928;10.446;2022-08-21T18:34:48;0.93;;;0.47;;
52226;SDS011;38190;59.928;10.446;2022-08-21T18:37:48;2.00;;;1.08;;
52226;SDS011;38190;59.928;10.446;2022-08-21T18:40:50;1.73;;;0.30;;
52226;SDS011;38190;59.928;10.446;2022-08-21T18:43:53;2.22;;;0.70;;
52226;SDS011;38190;59.928;10.446;2022-08-21T18:47:08;1.15;;;0.82;;
52226;SDS011;38190;59.928;10.446;2022-08-21T18:50:14;4.07;;;1.00;;
52226;SDS011;38190;59.928;10.446;2022-08-21T18:53:16;1.75;;;0.95;;
52226;SDS011;38190;59.928;10.446;2022-08-21T18:56:17;4.53;;;0.82;;
52226;SDS011;38190;59.928;10.446;2022-08-21T18:59:18;8.18;;;1.17;;
52226;SDS011;38190;59.928;10.446;2022-08-21T19:02:19;1.70;;;0.70;;
52226;SDS011;38190;59.928;10.446;2022-08-21T19:05:20;2.22;;;1.25;;
52226;SDS011;38190;59.928;10.446;2022-08-21T19:08:23;0.43;;;0.38;;
52226;SDS011;38190;59.928;10.446;2022-08-21T19:11:26;2.03;;;0.60;;
52226;SDS011;38190;59.928;10.446;2022-08-21T19:14:27;7.65;;;1.45;;